sensor_id;sensor_type;location;lat;lon;timestamp;P1;durP1;ratioP1;P2;durP2;ratioP2
57828;SDS011;43657;52.698;6.314;2023-05-02T00:01:55;25.30;;;22.63;;
57828;SDS011;43657;52.698;6.314;2023-05-02T00:04:21;24.98;;;21.02;;
57828;SDS011;43657;52.698;6.314;2023-05-02T00:06:46;22.88;;;20.48;;
57828;SDS011;43657;52.698;6.314;2023-05-02T00:09:12;25.40;;;20.70;;
57828;SDS011;43657;52.698;6.314;2023-05-02T00:11:38;24.70;;;18.40;;
57828;SDS011;43657;52.698;6.314;2023-05-02T00:14:03;20.05;;;17.95;;
57828;SDS011;43657;52.698;6.314;2023-05-02T00:16:29;20.67;;;16.85;;
57828;SDS011;43657;52.698;6.314;2023-05-02T00:18:55;20.70;;;15.02;;
57828;SDS011;43657;52.698;6.314;2023-05-02T00:21:20;18.63;;;15.50;;
57828;SDS011;43657;52.698;6.314;2023-05-02T00:23:46;18.65;;;14.55;;
57828;SDS011;43657;52.698;6.314;2023-05-02T00:26:11;19.23;;;13.88;;
57828;SDS011;43657;52.698;6.314;2023-05-02T00:28:37;18.67;;;13.93;;
57828;SDS011;43657;52.698;6.314;2023-05-02T00:31:04;19.45;;;13.38;;
57828;SDS011;43657;52.698;6.314;2023-05-02T00:33:29;20.30;;;14.43;;
57828;SDS011;43657;52.698;6.314;2023-05-02T00:35:55;22.38;;;13.98;;
57828;SDS011;43657;52.698;6.314;2023-05-02T00:38:21;19.77;;;14.10;;
57828;SDS011;43657;52.698;6.314;2023-05-02T00:40:47;18.52;;;12.77;;
57828;SDS011;43657;52.698;6.314;2023-05-02T00:43:15;17.33;;;11.75;;
57828;SDS011;43657;52.698;6.314;2023-05-02T00:45:41;19.17;;;12.38;;
57828;SDS011;43657;52.698;6.314;2023-05-02T00:48:08;22.27;;;10.70;;
57828;SDS011;43657;52.698;6.314;2023-05-02T00:50:39;18.73;;;9.60;;
57828;SDS011;43657;52.698;6.314;2023-05-02T00:53:05;20.50;;;9.35;;
57828;SDS011;43657;52.698;6.314;2023-05-02T00:55:32;14.35;;;8.60;;
57828;SDS011;43657;52.698;6.314;2023-05-02T00:57:59;15.75;;;8.80;;
57828;SDS011;43657;52.698;6.314;2023-05-02T01:00:30;13.45;;;7.43;;
57828;SDS011;43657;52.698;6.314;2023-05-02T01:03:09;13.63;;;6.75;;
57828;SDS011;43657;52.698;6.314;2023-05-02T01:05:58;11.30;;;6.55;;
57828;SDS011;43657;52.698;6.314;2023-05-02T01:08:49;12.82;;;7.55;;
57828;SDS011;43657;52.698;6.314;2023-05-02T01:11:32;12.25;;;7.15;;
57828;SDS011;43657;52.698;6.314;2023-05-02T01:14:05;11.25;;;6.70;;
57828;SDS011;43657;52.698;6.314;2023-05-02T01:16:33;10.80;;;6.28;;
57828;SDS011;43657;52.698;6.314;2023-05-02T01:19:04;12.25;;;6.55;;
57828;SDS011;43657;52.698;6.314;2023-05-02T01:21:34;9.65;;;5.57;;
57828;SDS011;43657;52.698;6.314;2023-05-02T01:24:06;11.82;;;6.10;;
57828;SDS011;43657;52.698;6.314;2023-05-02T01:26:51;9.50;;;6.13;;
57828;SDS011;43657;52.698;6.314;2023-05-02T01:29:26;10.50;;;5.38;;
57828;SDS011;43657;52.698;6.314;2023-05-02T01:31:53;13.57;;;5.85;;
57828;SDS011;43657;52.698;6.314;2023-05-02T01:34:20;9.45;;;5.20;;
57828;SDS011;43657;52.698;6.314;2023-05-02T01:36:47;10.43;;;6.20;;
57828;SDS011;43657;52.698;6.314;2023-05-02T01:39:17;9.05;;;5.88;;
57828;SDS011;43657;52.698;6.314;2023-05-02T01:41:45;10.13;;;5.68;;
57828;SDS011;43657;52.698;6.314;2023-05-02T01:44:13;11.50;;;5.65;;
57828;SDS011;43657;52.698;6.314;2023-05-02T01:46:41;11.02;;;5.97;;
57828;SDS011;43657;52.698;6.314;2023-05-02T01:49:08;12.52;;;5.85;;
57828;SDS011;43657;52.698;6.314;2023-05-02T01:51:35;7.95;;;5.43;;
57828;SDS011;43657;52.698;6.314;2023-05-02T01:54:06;12.95;;;5.78;;
57828;SDS011;43657;52.698;6.314;2023-05-02T01:56:34;10.02;;;5.75;;
57828;SDS011;43657;52.698;6.314;2023-05-02T01:59:02;10.75;;;6.18;;
57828;SDS011;43657;52.698;6.314;2023-05-02T02:01:32;8.77;;;5.82;;
57828;SDS011;43657;52.698;6.314;2023-05-02T02:04:03;11.18;;;5.88;;
57828;SDS011;43657;52.698;6.314;2023-05-02T02:06:30;9.27;;;5.65;;
57828;SDS011;43657;52.698;6.314;2023-05-02T02:08:56;10.60;;;5.82;;
57828;SDS011;43657;52.698;6.314;2023-05-02T02:11:34;9.52;;;5.45;;
57828;SDS011;43657;52.698;6.314;2023-05-02T02:14:05;8.73;;;5.40;;
57828;SDS011;43657;52.698;6.314;2023-05-02T02:16:33;10.90;;;5.72;;
57828;SDS011;43657;52.698;6.314;2023-05-02T02:19:03;10.25;;;5.03;;
57828;SDS011;43657;52.698;6.314;2023-05-02T02:21:32;8.52;;;5.32;;
57828;SDS011;43657;52.698;6.314;2023-05-02T02:24:00;11.55;;;5.82;;
57828;SDS011;43657;52.698;6.314;2023-05-02T02:26:28;10.60;;;5.05;;
57828;SDS011;43657;52.698;6.314;2023-05-02T02:28:54;9.75;;;5.50;;
57828;SDS011;43657;52.698;6.314;2023-05-02T02:31:20;8.88;;;5.40;;
57828;SDS011;43657;52.698;6.314;2023-05-02T02:33:46;7.97;;;4.72;;
57828;SDS011;43657;52.698;6.314;2023-05-02T02:36:27;7.82;;;4.30;;
57828;SDS011;43657;52.698;6.314;2023-05-02T02:41:27;9.68;;;4.90;;
57828;SDS011;43657;52.698;6.314;2023-05-02T02:44:04;8.82;;;5.18;;
57828;SDS011;43657;52.698;6.314;2023-05-02T02:49:28;8.82;;;5.53;;
57828;SDS011;43657;52.698;6.314;2023-05-02T02:52:20;10.25;;;6.75;;
57828;SDS011;43657;52.698;6.314;2023-05-02T02:58:02;13.68;;;5.43;;
57828;SDS011;43657;52.698;6.314;2023-05-02T03:00:38;15.45;;;6.30;;
57828;SDS011;43657;52.698;6.314;2023-05-02T03:03:04;19.10;;;7.15;;
57828;SDS011;43657;52.698;6.314;2023-05-02T03:05:31;20.55;;;6.93;;
57828;SDS011;43657;52.698;6.314;2023-05-02T03:07:58;17.02;;;7.40;;
57828;SDS011;43657;52.698;6.314;2023-05-02T03:10:24;20.77;;;7.28;;
57828;SDS011;43657;52.698;6.314;2023-05-02T03:12:50;18.70;;;7.70;;
57828;SDS011;43657;52.698;6.314;2023-05-02T03:18:16;16.40;;;7.18;;
57828;SDS011;43657;52.698;6.314;2023-05-02T03:20:44;20.70;;;7.20;;
57828;SDS011;43657;52.698;6.314;2023-05-02T03:23:10;18.45;;;7.35;;
57828;SDS011;43657;52.698;6.314;2023-05-02T03:25:35;21.40;;;7.40;;
57828;SDS011;43657;52.698;6.314;2023-05-02T03:28:01;21.23;;;7.75;;
57828;SDS011;43657;52.698;6.314;2023-05-02T03:30:27;25.52;;;8.15;;
57828;SDS011;43657;52.698;6.314;2023-05-02T03:32:53;21.90;;;7.25;;
57828;SDS011;43657;52.698;6.314;2023-05-02T03:35:18;24.75;;;7.68;;
57828;SDS011;43657;52.698;6.314;2023-05-02T03:37:44;19.23;;;7.40;;
57828;SDS011;43657;52.698;6.314;2023-05-02T03:40:10;19.83;;;7.18;;
57828;SDS011;43657;52.698;6.314;2023-05-02T03:42:36;21.52;;;7.95;;
57828;SDS011;43657;52.698;6.314;2023-05-02T03:45:06;20.95;;;7.65;;
57828;SDS011;43657;52.698;6.314;2023-05-02T03:47:32;19.45;;;7.43;;
57828;SDS011;43657;52.698;6.314;2023-05-02T03:49:58;20.40;;;7.38;;
57828;SDS011;43657;52.698;6.314;2023-05-02T03:52:24;23.17;;;7.25;;
57828;SDS011;43657;52.698;6.314;2023-05-02T03:54:50;21.05;;;7.43;;
57828;SDS011;43657;52.698;6.314;2023-05-02T03:57:16;21.95;;;8.13;;
57828;SDS011;43657;52.698;6.314;2023-05-02T03:59:44;22.70;;;7.38;;
57828;SDS011;43657;52.698;6.314;2023-05-02T04:02:11;20.58;;;7.40;;
57828;SDS011;43657;52.698;6.314;2023-05-02T04:04:36;23.77;;;8.27;;
57828;SDS011;43657;52.698;6.314;2023-05-02T04:07:04;20.75;;;7.38;;
57828;SDS011;43657;52.698;6.314;2023-05-02T04:09:31;20.75;;;6.93;;
57828;SDS011;43657;52.698;6.314;2023-05-02T04:12:03;23.83;;;7.22;;
57828;SDS011;43657;52.698;6.314;2023-05-02T04:14:32;22.02;;;6.85;;
57828;SDS011;43657;52.698;6.314;2023-05-02T04:16:57;21.30;;;7.60;;
57828;SDS011;43657;52.698;6.314;2023-05-02T04:19:23;23.50;;;7.05;;
57828;SDS011;43657;52.698;6.314;2023-05-02T04:21:48;19.17;;;7.53;;
57828;SDS011;43657;52.698;6.314;2023-05-02T04:24:14;24.27;;;7.70;;
57828;SDS011;43657;52.698;6.314;2023-05-02T04:26:42;18.85;;;7.25;;
57828;SDS011;43657;52.698;6.314;2023-05-02T04:29:10;18.13;;;6.60;;
57828;SDS011;43657;52.698;6.314;2023-05-02T04:31:37;19.45;;;6.20;;
57828;SDS011;43657;52.698;6.314;2023-05-02T04:34:03;15.48;;;5.97;;
57828;SDS011;43657;52.698;6.314;2023-05-02T04:36:30;20.63;;;6.63;;
57828;SDS011;43657;52.698;6.314;2023-05-02T04:38:56;22.05;;;6.80;;
57828;SDS011;43657;52.698;6.314;2023-05-02T04:41:21;21.35;;;7.05;;
57828;SDS011;43657;52.698;6.314;2023-05-02T04:43:47;19.02;;;6.20;;
57828;SDS011;43657;52.698;6.314;2023-05-02T04:46:13;20.23;;;6.22;;
57828;SDS011;43657;52.698;6.314;2023-05-02T04:48:38;20.27;;;6.82;;
57828;SDS011;43657;52.698;6.314;2023-05-02T04:51:06;15.60;;;5.40;;
57828;SDS011;43657;52.698;6.314;2023-05-02T04:53:36;18.75;;;6.07;;
57828;SDS011;43657;52.698;6.314;2023-05-02T04:56:02;16.52;;;5.50;;
57828;SDS011;43657;52.698;6.314;2023-05-02T04:58:27;17.63;;;5.32;;
57828;SDS011;43657;52.698;6.314;2023-05-02T05:00:53;16.20;;;5.30;;
57828;SDS011;43657;52.698;6.314;2023-05-02T05:03:19;18.58;;;5.18;;
57828;SDS011;43657;52.698;6.314;2023-05-02T05:05:45;18.88;;;5.47;;
57828;SDS011;43657;52.698;6.314;2023-05-02T05:08:11;15.73;;;4.57;;
57828;SDS011;43657;52.698;6.314;2023-05-02T05:10:37;15.70;;;4.40;;
57828;SDS011;43657;52.698;6.314;2023-05-02T05:13:04;16.45;;;4.80;;
57828;SDS011;43657;52.698;6.314;2023-05-02T05:15:30;12.77;;;4.57;;
57828;SDS011;43657;52.698;6.314;2023-05-02T05:17:56;12.68;;;5.03;;
57828;SDS011;43657;52.698;6.314;2023-05-02T05:20:22;13.40;;;4.72;;
57828;SDS011;43657;52.698;6.314;2023-05-02T05:22:48;18.10;;;4.40;;
57828;SDS011;43657;52.698;6.314;2023-05-02T05:25:13;12.85;;;4.53;;
57828;SDS011;43657;52.698;6.314;2023-05-02T05:27:39;13.38;;;4.40;;
57828;SDS011;43657;52.698;6.314;2023-05-02T05:30:06;13.70;;;4.18;;
57828;SDS011;43657;52.698;6.314;2023-05-02T05:32:33;13.98;;;4.00;;
57828;SDS011;43657;52.698;6.314;2023-05-02T05:35:01;12.98;;;3.90;;
57828;SDS011;43657;52.698;6.314;2023-05-02T05:37:28;13.10;;;4.03;;
57828;SDS011;43657;52.698;6.314;2023-05-02T05:39:54;10.05;;;3.50;;
57828;SDS011;43657;52.698;6.314;2023-05-02T05:42:19;11.02;;;3.38;;
57828;SDS011;43657;52.698;6.314;2023-05-02T05:44:45;7.47;;;2.60;;
57828;SDS011;43657;52.698;6.314;2023-05-02T05:47:10;10.98;;;3.00;;
57828;SDS011;43657;52.698;6.314;2023-05-02T05:49:36;9.55;;;2.92;;
57828;SDS011;43657;52.698;6.314;2023-05-02T05:52:02;7.50;;;3.08;;
57828;SDS011;43657;52.698;6.314;2023-05-02T05:54:27;7.93;;;3.10;;
57828;SDS011;43657;52.698;6.314;2023-05-02T05:56:53;10.02;;;2.88;;
57828;SDS011;43657;52.698;6.314;2023-05-02T05:59:18;9.27;;;3.10;;
57828;SDS011;43657;52.698;6.314;2023-05-02T06:01:44;8.48;;;2.90;;
57828;SDS011;43657;52.698;6.314;2023-05-02T06:04:10;9.52;;;3.05;;
57828;SDS011;43657;52.698;6.314;2023-05-02T06:06:36;8.10;;;3.30;;
57828;SDS011;43657;52.698;6.314;2023-05-02T06:09:02;9.32;;;3.17;;
57828;SDS011;43657;52.698;6.314;2023-05-02T06:11:28;8.80;;;3.05;;
57828;SDS011;43657;52.698;6.314;2023-05-02T06:13:54;8.40;;;3.05;;
57828;SDS011;43657;52.698;6.314;2023-05-02T06:16:20;10.68;;;3.17;;
57828;SDS011;43657;52.698;6.314;2023-05-02T06:18:45;7.57;;;2.95;;
57828;SDS011;43657;52.698;6.314;2023-05-02T06:21:11;11.02;;;3.03;;
57828;SDS011;43657;52.698;6.314;2023-05-02T06:23:37;8.18;;;2.90;;
57828;SDS011;43657;52.698;6.314;2023-05-02T06:26:03;11.18;;;2.80;;
57828;SDS011;43657;52.698;6.314;2023-05-02T06:28:29;7.40;;;2.83;;
57828;SDS011;43657;52.698;6.314;2023-05-02T06:31:02;10.68;;;3.88;;
57828;SDS011;43657;52.698;6.314;2023-05-02T06:33:29;10.77;;;3.22;;
57828;SDS011;43657;52.698;6.314;2023-05-02T06:35:58;11.10;;;3.60;;
57828;SDS011;43657;52.698;6.314;2023-05-02T06:38:27;11.90;;;3.60;;
57828;SDS011;43657;52.698;6.314;2023-05-02T06:40:52;9.20;;;3.30;;
57828;SDS011;43657;52.698;6.314;2023-05-02T06:43:18;11.85;;;3.85;;
57828;SDS011;43657;52.698;6.314;2023-05-02T06:45:44;8.85;;;2.90;;
57828;SDS011;43657;52.698;6.314;2023-05-02T06:48:10;8.32;;;3.15;;
57828;SDS011;43657;52.698;6.314;2023-05-02T06:50:35;7.38;;;3.40;;
57828;SDS011;43657;52.698;6.314;2023-05-02T06:53:01;10.85;;;3.55;;
57828;SDS011;43657;52.698;6.314;2023-05-02T06:55:28;9.80;;;3.00;;
57828;SDS011;43657;52.698;6.314;2023-05-02T06:57:53;6.40;;;3.15;;
57828;SDS011;43657;52.698;6.314;2023-05-02T07:00:19;8.73;;;3.03;;
57828;SDS011;43657;52.698;6.314;2023-05-02T07:02:46;8.13;;;3.00;;
57828;SDS011;43657;52.698;6.314;2023-05-02T07:05:12;11.20;;;3.63;;
57828;SDS011;43657;52.698;6.314;2023-05-02T07:07:40;8.95;;;3.00;;
57828;SDS011;43657;52.698;6.314;2023-05-02T07:10:06;10.77;;;3.60;;
57828;SDS011;43657;52.698;6.314;2023-05-02T07:12:32;12.30;;;3.58;;
57828;SDS011;43657;52.698;6.314;2023-05-02T07:14:57;8.52;;;3.55;;
57828;SDS011;43657;52.698;6.314;2023-05-02T07:17:23;9.63;;;3.08;;
57828;SDS011;43657;52.698;6.314;2023-05-02T07:19:49;10.23;;;3.53;;
57828;SDS011;43657;52.698;6.314;2023-05-02T07:22:15;9.45;;;3.00;;
57828;SDS011;43657;52.698;6.314;2023-05-02T07:24:41;10.45;;;3.45;;
57828;SDS011;43657;52.698;6.314;2023-05-02T07:27:10;8.25;;;3.33;;
57828;SDS011;43657;52.698;6.314;2023-05-02T07:29:37;10.52;;;3.58;;
57828;SDS011;43657;52.698;6.314;2023-05-02T07:32:03;10.63;;;3.50;;
57828;SDS011;43657;52.698;6.314;2023-05-02T07:34:29;12.10;;;3.53;;
57828;SDS011;43657;52.698;6.314;2023-05-02T07:36:55;11.75;;;3.55;;
57828;SDS011;43657;52.698;6.314;2023-05-02T07:39:21;10.75;;;3.80;;
57828;SDS011;43657;52.698;6.314;2023-05-02T07:41:51;12.00;;;4.10;;
57828;SDS011;43657;52.698;6.314;2023-05-02T07:44:17;12.07;;;3.70;;
57828;SDS011;43657;52.698;6.314;2023-05-02T07:46:43;10.75;;;3.97;;
57828;SDS011;43657;52.698;6.314;2023-05-02T07:49:08;9.80;;;3.53;;
57828;SDS011;43657;52.698;6.314;2023-05-02T07:51:34;11.55;;;3.95;;
57828;SDS011;43657;52.698;6.314;2023-05-02T07:54:00;10.48;;;3.63;;
57828;SDS011;43657;52.698;6.314;2023-05-02T07:56:26;7.65;;;3.28;;
57828;SDS011;43657;52.698;6.314;2023-05-02T07:58:51;10.98;;;3.67;;
57828;SDS011;43657;52.698;6.314;2023-05-02T08:01:17;10.70;;;3.70;;
57828;SDS011;43657;52.698;6.314;2023-05-02T08:03:43;10.13;;;3.42;;
57828;SDS011;43657;52.698;6.314;2023-05-02T08:06:09;10.35;;;3.42;;
57828;SDS011;43657;52.698;6.314;2023-05-02T08:08:36;7.53;;;3.25;;
57828;SDS011;43657;52.698;6.314;2023-05-02T08:11:01;11.15;;;3.88;;
57828;SDS011;43657;52.698;6.314;2023-05-02T08:13:27;10.45;;;3.67;;
57828;SDS011;43657;52.698;6.314;2023-05-02T08:15:53;11.80;;;3.58;;
57828;SDS011;43657;52.698;6.314;2023-05-02T08:18:23;10.20;;;3.30;;
57828;SDS011;43657;52.698;6.314;2023-05-02T08:20:49;7.80;;;3.40;;
57828;SDS011;43657;52.698;6.314;2023-05-02T08:23:15;9.13;;;3.45;;
57828;SDS011;43657;52.698;6.314;2023-05-02T08:25:40;12.88;;;3.88;;
57828;SDS011;43657;52.698;6.314;2023-05-02T08:28:06;6.82;;;3.55;;
57828;SDS011;43657;52.698;6.314;2023-05-02T08:30:32;7.95;;;3.50;;
57828;SDS011;43657;52.698;6.314;2023-05-02T08:32:57;8.77;;;3.38;;
57828;SDS011;43657;52.698;6.314;2023-05-02T08:35:23;9.45;;;3.50;;
57828;SDS011;43657;52.698;6.314;2023-05-02T08:37:48;10.50;;;3.80;;
57828;SDS011;43657;52.698;6.314;2023-05-02T08:40:14;8.85;;;3.72;;
57828;SDS011;43657;52.698;6.314;2023-05-02T08:42:41;8.95;;;3.63;;
57828;SDS011;43657;52.698;6.314;2023-05-02T08:45:08;11.80;;;3.60;;
57828;SDS011;43657;52.698;6.314;2023-05-02T08:47:37;9.68;;;3.83;;
57828;SDS011;43657;52.698;6.314;2023-05-02T08:50:04;10.43;;;3.85;;
57828;SDS011;43657;52.698;6.314;2023-05-02T08:52:31;11.75;;;3.83;;
57828;SDS011;43657;52.698;6.314;2023-05-02T08:54:56;10.85;;;4.20;;
57828;SDS011;43657;52.698;6.314;2023-05-02T08:57:24;12.23;;;4.68;;
57828;SDS011;43657;52.698;6.314;2023-05-02T08:59:52;10.02;;;3.70;;
57828;SDS011;43657;52.698;6.314;2023-05-02T09:05:07;10.25;;;4.80;;
57828;SDS011;43657;52.698;6.314;2023-05-02T09:07:42;11.25;;;4.22;;
57828;SDS011;43657;52.698;6.314;2023-05-02T09:10:12;13.32;;;4.43;;
57828;SDS011;43657;52.698;6.314;2023-05-02T09:12:38;11.20;;;4.38;;
57828;SDS011;43657;52.698;6.314;2023-05-02T09:17:43;9.45;;;4.22;;
57828;SDS011;43657;52.698;6.314;2023-05-02T09:20:12;16.25;;;6.10;;
57828;SDS011;43657;52.698;6.314;2023-05-02T09:22:46;13.23;;;4.72;;
57828;SDS011;43657;52.698;6.314;2023-05-02T09:25:13;10.48;;;4.03;;
57828;SDS011;43657;52.698;6.314;2023-05-02T09:27:58;8.40;;;3.22;;
57828;SDS011;43657;52.698;6.314;2023-05-02T09:30:25;8.10;;;3.17;;
57828;SDS011;43657;52.698;6.314;2023-05-02T09:32:51;7.90;;;2.85;;
57828;SDS011;43657;52.698;6.314;2023-05-02T09:35:19;8.57;;;3.53;;
57828;SDS011;43657;52.698;6.314;2023-05-02T09:37:52;8.05;;;3.15;;
57828;SDS011;43657;52.698;6.314;2023-05-02T09:40:18;7.85;;;3.25;;
57828;SDS011;43657;52.698;6.314;2023-05-02T09:42:44;8.82;;;3.38;;
57828;SDS011;43657;52.698;6.314;2023-05-02T09:45:20;9.15;;;3.80;;
57828;SDS011;43657;52.698;6.314;2023-05-02T09:47:47;5.72;;;2.80;;
57828;SDS011;43657;52.698;6.314;2023-05-02T09:53:12;7.82;;;3.00;;
57828;SDS011;43657;52.698;6.314;2023-05-02T09:55:37;9.13;;;3.35;;
57828;SDS011;43657;52.698;6.314;2023-05-02T09:58:03;11.18;;;3.85;;
57828;SDS011;43657;52.698;6.314;2023-05-02T10:03:06;11.45;;;4.10;;
57828;SDS011;43657;52.698;6.314;2023-05-02T10:05:34;6.78;;;3.15;;
57828;SDS011;43657;52.698;6.314;2023-05-02T10:08:02;9.55;;;3.58;;
57828;SDS011;43657;52.698;6.314;2023-05-02T10:10:32;9.02;;;3.35;;
57828;SDS011;43657;52.698;6.314;2023-05-02T10:13:02;10.65;;;3.35;;
57828;SDS011;43657;52.698;6.314;2023-05-02T10:15:30;9.38;;;3.72;;
57828;SDS011;43657;52.698;6.314;2023-05-02T10:17:57;9.45;;;4.00;;
57828;SDS011;43657;52.698;6.314;2023-05-02T10:20:29;10.10;;;4.20;;
57828;SDS011;43657;52.698;6.314;2023-05-02T10:22:59;8.82;;;4.10;;
57828;SDS011;43657;52.698;6.314;2023-05-02T10:25:26;8.85;;;3.55;;
57828;SDS011;43657;52.698;6.314;2023-05-02T10:27:52;7.30;;;3.60;;
57828;SDS011;43657;52.698;6.314;2023-05-02T10:30:19;7.95;;;3.40;;
57828;SDS011;43657;52.698;6.314;2023-05-02T10:32:46;7.90;;;2.80;;
57828;SDS011;43657;52.698;6.314;2023-05-02T10:35:12;7.30;;;3.03;;
57828;SDS011;43657;52.698;6.314;2023-05-02T10:37:40;6.18;;;2.60;;
57828;SDS011;43657;52.698;6.314;2023-05-02T10:40:10;9.80;;;2.90;;
57828;SDS011;43657;52.698;6.314;2023-05-02T10:42:37;7.35;;;2.70;;
57828;SDS011;43657;52.698;6.314;2023-05-02T10:45:51;5.82;;;2.33;;
57828;SDS011;43657;52.698;6.314;2023-05-02T10:58:42;6.85;;;2.63;;
57828;SDS011;43657;52.698;6.314;2023-05-02T11:03:59;5.72;;;2.28;;
57828;SDS011;43657;52.698;6.314;2023-05-02T11:06:37;5.75;;;2.45;;
57828;SDS011;43657;52.698;6.314;2023-05-02T11:11:47;6.35;;;2.45;;
57828;SDS011;43657;52.698;6.314;2023-05-02T11:24:46;6.35;;;2.40;;
57828;SDS011;43657;52.698;6.314;2023-05-02T11:29:54;6.07;;;2.30;;
57828;SDS011;43657;52.698;6.314;2023-05-02T11:35:16;5.72;;;2.20;;
57828;SDS011;43657;52.698;6.314;2023-05-02T11:37:54;6.63;;;2.05;;
57828;SDS011;43657;52.698;6.314;2023-05-02T11:42:53;6.15;;;2.10;;
57828;SDS011;43657;52.698;6.314;2023-05-02T11:45:19;3.80;;;2.10;;
57828;SDS011;43657;52.698;6.314;2023-05-02T11:47:49;4.45;;;1.88;;
57828;SDS011;43657;52.698;6.314;2023-05-02T11:50:15;4.45;;;2.17;;
57828;SDS011;43657;52.698;6.314;2023-05-02T11:52:43;4.65;;;1.77;;
57828;SDS011;43657;52.698;6.314;2023-05-02T11:55:10;4.75;;;1.80;;
57828;SDS011;43657;52.698;6.314;2023-05-02T11:57:37;4.00;;;1.70;;
57828;SDS011;43657;52.698;6.314;2023-05-02T12:00:03;4.13;;;1.80;;
57828;SDS011;43657;52.698;6.314;2023-05-02T12:02:36;3.97;;;1.80;;
57828;SDS011;43657;52.698;6.314;2023-05-02T12:05:10;5.15;;;1.80;;
57828;SDS011;43657;52.698;6.314;2023-05-02T12:10:09;3.97;;;1.90;;
57828;SDS011;43657;52.698;6.314;2023-05-02T12:12:36;4.05;;;1.63;;
57828;SDS011;43657;52.698;6.314;2023-05-02T12:15:12;4.22;;;1.98;;
57828;SDS011;43657;52.698;6.314;2023-05-02T12:17:42;4.03;;;1.60;;
57828;SDS011;43657;52.698;6.314;2023-05-02T12:20:12;4.25;;;1.88;;
57828;SDS011;43657;52.698;6.314;2023-05-02T12:22:39;4.93;;;1.80;;
57828;SDS011;43657;52.698;6.314;2023-05-02T12:25:05;4.18;;;1.98;;
57828;SDS011;43657;52.698;6.314;2023-05-02T12:27:31;7.40;;;2.28;;
57828;SDS011;43657;52.698;6.314;2023-05-02T12:29:58;5.85;;;2.13;;
57828;SDS011;43657;52.698;6.314;2023-05-02T12:32:28;4.70;;;1.70;;
57828;SDS011;43657;52.698;6.314;2023-05-02T12:34:59;4.18;;;2.00;;
57828;SDS011;43657;52.698;6.314;2023-05-02T12:37:26;5.70;;;1.80;;
57828;SDS011;43657;52.698;6.314;2023-05-02T12:39:53;3.70;;;1.65;;
57828;SDS011;43657;52.698;6.314;2023-05-02T12:42:20;5.43;;;1.70;;
57828;SDS011;43657;52.698;6.314;2023-05-02T12:44:47;3.95;;;1.63;;
57828;SDS011;43657;52.698;6.314;2023-05-02T12:47:15;4.60;;;1.70;;
57828;SDS011;43657;52.698;6.314;2023-05-02T12:49:47;5.47;;;1.90;;
57828;SDS011;43657;52.698;6.314;2023-05-02T12:52:13;4.45;;;1.83;;
57828;SDS011;43657;52.698;6.314;2023-05-02T12:54:39;6.78;;;2.15;;
57828;SDS011;43657;52.698;6.314;2023-05-02T12:57:05;4.60;;;1.92;;
57828;SDS011;43657;52.698;6.314;2023-05-02T12:59:31;3.95;;;2.08;;
57828;SDS011;43657;52.698;6.314;2023-05-02T13:01:57;3.60;;;1.95;;
57828;SDS011;43657;52.698;6.314;2023-05-02T13:04:36;6.47;;;1.80;;
57828;SDS011;43657;52.698;6.314;2023-05-02T13:07:04;4.70;;;2.10;;
57828;SDS011;43657;52.698;6.314;2023-05-02T13:09:29;6.30;;;2.00;;
57828;SDS011;43657;52.698;6.314;2023-05-02T13:11:55;4.60;;;2.00;;
57828;SDS011;43657;52.698;6.314;2023-05-02T13:14:22;5.85;;;2.38;;
57828;SDS011;43657;52.698;6.314;2023-05-02T13:16:48;4.97;;;2.13;;
57828;SDS011;43657;52.698;6.314;2023-05-02T13:19:17;4.50;;;2.10;;
57828;SDS011;43657;52.698;6.314;2023-05-02T13:21:46;4.93;;;2.25;;
57828;SDS011;43657;52.698;6.314;2023-05-02T13:24:11;5.90;;;2.13;;
57828;SDS011;43657;52.698;6.314;2023-05-02T13:26:37;6.25;;;2.20;;
57828;SDS011;43657;52.698;6.314;2023-05-02T13:29:03;4.03;;;1.85;;
57828;SDS011;43657;52.698;6.314;2023-05-02T13:31:28;4.50;;;2.00;;
57828;SDS011;43657;52.698;6.314;2023-05-02T13:33:54;3.47;;;1.67;;
57828;SDS011;43657;52.698;6.314;2023-05-02T13:36:19;5.32;;;2.30;;
57828;SDS011;43657;52.698;6.314;2023-05-02T13:38:45;5.00;;;1.98;;
57828;SDS011;43657;52.698;6.314;2023-05-02T13:41:11;4.40;;;1.70;;
57828;SDS011;43657;52.698;6.314;2023-05-02T13:43:36;5.25;;;2.10;;
57828;SDS011;43657;52.698;6.314;2023-05-02T13:46:03;4.30;;;1.90;;
57828;SDS011;43657;52.698;6.314;2023-05-02T13:48:28;5.18;;;2.15;;
57828;SDS011;43657;52.698;6.314;2023-05-02T13:50:54;5.13;;;1.98;;
57828;SDS011;43657;52.698;6.314;2023-05-02T13:53:19;6.80;;;2.00;;
57828;SDS011;43657;52.698;6.314;2023-05-02T13:55:45;4.07;;;1.73;;
57828;SDS011;43657;52.698;6.314;2023-05-02T13:58:11;5.63;;;1.80;;
57828;SDS011;43657;52.698;6.314;2023-05-02T14:00:36;6.50;;;2.22;;
57828;SDS011;43657;52.698;6.314;2023-05-02T14:03:02;5.85;;;2.13;;
57828;SDS011;43657;52.698;6.314;2023-05-02T14:05:27;4.40;;;1.90;;
57828;SDS011;43657;52.698;6.314;2023-05-02T14:07:53;5.70;;;2.00;;
57828;SDS011;43657;52.698;6.314;2023-05-02T14:10:19;5.05;;;2.10;;
57828;SDS011;43657;52.698;6.314;2023-05-02T14:12:44;8.38;;;2.30;;
57828;SDS011;43657;52.698;6.314;2023-05-02T14:15:10;4.80;;;1.98;;
57828;SDS011;43657;52.698;6.314;2023-05-02T14:17:36;4.70;;;2.10;;
57828;SDS011;43657;52.698;6.314;2023-05-02T14:20:02;4.47;;;2.17;;
57828;SDS011;43657;52.698;6.314;2023-05-02T14:22:27;4.40;;;2.22;;
57828;SDS011;43657;52.698;6.314;2023-05-02T14:24:53;4.45;;;2.00;;
57828;SDS011;43657;52.698;6.314;2023-05-02T14:27:18;4.15;;;2.13;;
57828;SDS011;43657;52.698;6.314;2023-05-02T14:29:44;6.15;;;2.15;;
57828;SDS011;43657;52.698;6.314;2023-05-02T14:32:11;5.28;;;2.10;;
57828;SDS011;43657;52.698;6.314;2023-05-02T14:34:36;6.53;;;2.42;;
57828;SDS011;43657;52.698;6.314;2023-05-02T14:37:02;5.07;;;2.17;;
57828;SDS011;43657;52.698;6.314;2023-05-02T14:39:27;3.25;;;1.83;;
57828;SDS011;43657;52.698;6.314;2023-05-02T14:41:55;4.18;;;2.13;;
57828;SDS011;43657;52.698;6.314;2023-05-02T14:44:21;5.07;;;2.13;;
57828;SDS011;43657;52.698;6.314;2023-05-02T14:46:52;5.55;;;2.20;;
57828;SDS011;43657;52.698;6.314;2023-05-02T14:49:27;4.50;;;2.10;;
57828;SDS011;43657;52.698;6.314;2023-05-02T14:51:53;5.30;;;2.20;;
57828;SDS011;43657;52.698;6.314;2023-05-02T14:54:19;5.38;;;2.30;;
57828;SDS011;43657;52.698;6.314;2023-05-02T14:56:44;7.55;;;2.20;;
57828;SDS011;43657;52.698;6.314;2023-05-02T14:59:11;6.38;;;1.77;;
57828;SDS011;43657;52.698;6.314;2023-05-02T15:01:36;3.92;;;1.70;;
57828;SDS011;43657;52.698;6.314;2023-05-02T15:04:02;4.75;;;1.67;;
57828;SDS011;43657;52.698;6.314;2023-05-02T15:06:28;3.72;;;1.52;;
57828;SDS011;43657;52.698;6.314;2023-05-02T15:08:57;4.00;;;1.92;;
57828;SDS011;43657;52.698;6.314;2023-05-02T15:11:25;4.22;;;1.80;;
57828;SDS011;43657;52.698;6.314;2023-05-02T15:13:51;6.90;;;2.00;;
57828;SDS011;43657;52.698;6.314;2023-05-02T15:16:17;4.95;;;1.92;;
57828;SDS011;43657;52.698;6.314;2023-05-02T15:18:42;4.78;;;1.80;;
57828;SDS011;43657;52.698;6.314;2023-05-02T15:21:08;7.13;;;1.60;;
57828;SDS011;43657;52.698;6.314;2023-05-02T15:23:33;3.70;;;1.88;;
57828;SDS011;43657;52.698;6.314;2023-05-02T15:25:59;5.05;;;2.00;;
57828;SDS011;43657;52.698;6.314;2023-05-02T15:28:25;4.68;;;1.80;;
57828;SDS011;43657;52.698;6.314;2023-05-02T15:30:50;2.08;;;1.60;;
57828;SDS011;43657;52.698;6.314;2023-05-02T15:33:16;4.50;;;1.85;;
57828;SDS011;43657;52.698;6.314;2023-05-02T15:35:52;3.88;;;1.70;;
57828;SDS011;43657;52.698;6.314;2023-05-02T15:38:27;6.03;;;1.70;;
57828;SDS011;43657;52.698;6.314;2023-05-02T15:40:53;5.22;;;2.05;;
57828;SDS011;43657;52.698;6.314;2023-05-02T15:43:20;4.55;;;2.03;;